sensor_id;sensor_type;location;lat;lon;timestamp;P1;durP1;ratioP1;P2;durP2;ratioP2
24439;SDS011;12618;54.386;18.394;2022-08-25T00:02:24;15.70;;;9.40;;
24439;SDS011;12618;54.386;18.394;2022-08-25T00:04:55;15.45;;;8.78;;
24439;SDS011;12618;54.386;18.394;2022-08-25T00:07:25;15.00;;;9.18;;
24439;SDS011;12618;54.386;18.394;2022-08-25T00:09:58;15.53;;;9.43;;
24439;SDS011;12618;54.386;18.394;2022-08-25T00:12:29;13.15;;;9.35;;
24439;SDS011;12618;54.386;18.394;2022-08-25T00:15:00;14.47;;;10.00;;
24439;SDS011;12618;54.386;18.394;2022-08-25T00:17:30;16.77;;;9.98;;
24439;SDS011;12618;54.386;18.394;2022-08-25T00:20:01;16.62;;;10.30;;
24439;SDS011;12618;54.386;18.394;2022-08-25T00:22:32;17.82;;;10.10;;
24439;SDS011;12618;54.386;18.394;2022-08-25T00:25:02;16.10;;;9.40;;
24439;SDS011;12618;54.386;18.394;2022-08-25T00:27:33;15.35;;;10.00;;
24439;SDS011;12618;54.386;18.394;2022-08-25T00:30:04;15.55;;;9.18;;
24439;SDS011;12618;54.386;18.394;2022-08-25T00:32:35;15.45;;;8.80;;
24439;SDS011;12618;54.386;18.394;2022-08-25T00:35:05;18.65;;;8.23;;
24439;SDS011;12618;54.386;18.394;2022-08-25T00:37:36;12.68;;;7.90;;
24439;SDS011;12618;54.386;18.394;2022-08-25T00:40:07;13.05;;;7.17;;
24439;SDS011;12618;54.386;18.394;2022-08-25T00:42:38;14.68;;;6.53;;
24439;SDS011;12618;54.386;18.394;2022-08-25T00:45:10;11.63;;;6.55;;
24439;SDS011;12618;54.386;18.394;2022-08-25T00:47:40;12.13;;;6.28;;
24439;SDS011;12618;54.386;18.394;2022-08-25T00:50:11;13.18;;;6.97;;
24439;SDS011;12618;54.386;18.394;2022-08-25T00:52:43;10.08;;;5.67;;
24439;SDS011;12618;54.386;18.394;2022-08-25T00:55:18;11.33;;;6.00;;
24439;SDS011;12618;54.386;18.394;2022-08-25T00:57:52;11.68;;;5.72;;
24439;SDS011;12618;54.386;18.394;2022-08-25T01:00:28;10.35;;;5.37;;
24439;SDS011;12618;54.386;18.394;2022-08-25T01:02:58;10.48;;;6.10;;
24439;SDS011;12618;54.386;18.394;2022-08-25T01:05:29;13.58;;;7.30;;
24439;SDS011;12618;54.386;18.394;2022-08-25T01:08:00;11.93;;;7.08;;
24439;SDS011;12618;54.386;18.394;2022-08-25T01:10:35;12.68;;;7.30;;
24439;SDS011;12618;54.386;18.394;2022-08-25T01:13:09;10.13;;;6.60;;
24439;SDS011;12618;54.386;18.394;2022-08-25T01:15:40;11.53;;;6.67;;
24439;SDS011;12618;54.386;18.394;2022-08-25T01:18:11;12.07;;;6.58;;
24439;SDS011;12618;54.386;18.394;2022-08-25T01:20:41;13.53;;;5.92;;
24439;SDS011;12618;54.386;18.394;2022-08-25T01:23:12;13.05;;;6.08;;
24439;SDS011;12618;54.386;18.394;2022-08-25T01:26:00;13.18;;;6.33;;
24439;SDS011;12618;54.386;18.394;2022-08-25T01:28:25;15.23;;;6.90;;
24439;SDS011;12618;54.386;18.394;2022-08-25T01:30:56;9.38;;;6.70;;
24439;SDS011;12618;54.386;18.394;2022-08-25T01:33:26;10.40;;;6.58;;
24439;SDS011;12618;54.386;18.394;2022-08-25T01:35:57;15.07;;;7.67;;
24439;SDS011;12618;54.386;18.394;2022-08-25T01:38:27;10.13;;;6.92;;
24439;SDS011;12618;54.386;18.394;2022-08-25T01:40:58;14.65;;;7.00;;
24439;SDS011;12618;54.386;18.394;2022-08-25T01:43:34;12.63;;;6.90;;
24439;SDS011;12618;54.386;18.394;2022-08-25T01:46:04;10.20;;;6.85;;
24439;SDS011;12618;54.386;18.394;2022-08-25T01:48:37;13.43;;;7.47;;
24439;SDS011;12618;54.386;18.394;2022-08-25T01:51:10;10.23;;;7.22;;
24439;SDS011;12618;54.386;18.394;2022-08-25T01:53:40;14.55;;;8.18;;
24439;SDS011;12618;54.386;18.394;2022-08-25T01:56:14;10.13;;;6.47;;
24439;SDS011;12618;54.386;18.394;2022-08-25T01:58:45;11.35;;;6.75;;
24439;SDS011;12618;54.386;18.394;2022-08-25T02:01:18;14.63;;;6.80;;
24439;SDS011;12618;54.386;18.394;2022-08-25T02:03:50;11.93;;;7.37;;
24439;SDS011;12618;54.386;18.394;2022-08-25T02:06:22;16.17;;;7.28;;
24439;SDS011;12618;54.386;18.394;2022-08-25T02:08:54;14.33;;;7.10;;
24439;SDS011;12618;54.386;18.394;2022-08-25T02:11:25;12.68;;;7.12;;
24439;SDS011;12618;54.386;18.394;2022-08-25T02:13:56;11.78;;;6.58;;
24439;SDS011;12618;54.386;18.394;2022-08-25T02:16:30;9.65;;;6.53;;
24439;SDS011;12618;54.386;18.394;2022-08-25T02:19:00;13.65;;;7.30;;
24439;SDS011;12618;54.386;18.394;2022-08-25T02:21:31;12.85;;;6.58;;
24439;SDS011;12618;54.386;18.394;2022-08-25T02:24:02;13.78;;;7.80;;
24439;SDS011;12618;54.386;18.394;2022-08-25T02:26:32;14.85;;;7.35;;
24439;SDS011;12618;54.386;18.394;2022-08-25T02:29:04;11.90;;;7.35;;
24439;SDS011;12618;54.386;18.394;2022-08-25T02:31:34;15.32;;;7.15;;
24439;SDS011;12618;54.386;18.394;2022-08-25T02:34:05;14.73;;;7.12;;
24439;SDS011;12618;54.386;18.394;2022-08-25T02:36:36;10.43;;;6.92;;
24439;SDS011;12618;54.386;18.394;2022-08-25T02:39:08;15.78;;;7.87;;
24439;SDS011;12618;54.386;18.394;2022-08-25T02:41:38;11.85;;;7.37;;
24439;SDS011;12618;54.386;18.394;2022-08-25T02:44:09;12.10;;;7.37;;
24439;SDS011;12618;54.386;18.394;2022-08-25T02:46:39;12.35;;;7.10;;
24439;SDS011;12618;54.386;18.394;2022-08-25T02:49:10;14.35;;;7.83;;
24439;SDS011;12618;54.386;18.394;2022-08-25T02:51:40;11.05;;;7.80;;
24439;SDS011;12618;54.386;18.394;2022-08-25T02:54:12;12.90;;;8.00;;
24439;SDS011;12618;54.386;18.394;2022-08-25T02:56:42;14.78;;;7.92;;
24439;SDS011;12618;54.386;18.394;2022-08-25T02:59:13;11.97;;;8.25;;
24439;SDS011;12618;54.386;18.394;2022-08-25T03:01:44;14.65;;;8.50;;
24439;SDS011;12618;54.386;18.394;2022-08-25T03:04:14;17.27;;;9.13;;
24439;SDS011;12618;54.386;18.394;2022-08-25T03:06:45;16.70;;;9.93;;
24439;SDS011;12618;54.386;18.394;2022-08-25T03:09:15;13.68;;;9.43;;
24439;SDS011;12618;54.386;18.394;2022-08-25T03:11:47;14.33;;;8.98;;
24439;SDS011;12618;54.386;18.394;2022-08-25T03:14:17;16.87;;;8.95;;
24439;SDS011;12618;54.386;18.394;2022-08-25T03:16:48;16.82;;;9.00;;
24439;SDS011;12618;54.386;18.394;2022-08-25T03:19:18;13.20;;;9.27;;
24439;SDS011;12618;54.386;18.394;2022-08-25T03:21:49;14.40;;;9.43;;
24439;SDS011;12618;54.386;18.394;2022-08-25T03:24:26;16.07;;;9.68;;
24439;SDS011;12618;54.386;18.394;2022-08-25T03:26:53;16.50;;;9.98;;
24439;SDS011;12618;54.386;18.394;2022-08-25T03:29:26;11.97;;;9.28;;
24439;SDS011;12618;54.386;18.394;2022-08-25T03:31:57;14.70;;;9.03;;
24439;SDS011;12618;54.386;18.394;2022-08-25T03:34:28;17.20;;;10.35;;
24439;SDS011;12618;54.386;18.394;2022-08-25T03:36:59;11.48;;;8.93;;
24439;SDS011;12618;54.386;18.394;2022-08-25T03:39:30;12.70;;;8.95;;
24439;SDS011;12618;54.386;18.394;2022-08-25T03:42:01;14.80;;;9.45;;
24439;SDS011;12618;54.386;18.394;2022-08-25T03:44:32;15.30;;;8.83;;
24439;SDS011;12618;54.386;18.394;2022-08-25T03:47:02;17.62;;;10.28;;
24439;SDS011;12618;54.386;18.394;2022-08-25T03:49:33;18.02;;;9.83;;
24439;SDS011;12618;54.386;18.394;2022-08-25T03:52:04;14.35;;;9.03;;
24439;SDS011;12618;54.386;18.394;2022-08-25T03:54:34;14.60;;;9.18;;
24439;SDS011;12618;54.386;18.394;2022-08-25T03:57:05;15.32;;;8.48;;
24439;SDS011;12618;54.386;18.394;2022-08-25T03:59:35;14.85;;;9.25;;
24439;SDS011;12618;54.386;18.394;2022-08-25T04:02:07;13.68;;;9.75;;
24439;SDS011;12618;54.386;18.394;2022-08-25T04:04:38;17.15;;;9.78;;
24439;SDS011;12618;54.386;18.394;2022-08-25T04:07:09;11.60;;;9.53;;
24439;SDS011;12618;54.386;18.394;2022-08-25T04:09:40;13.28;;;8.85;;
24439;SDS011;12618;54.386;18.394;2022-08-25T04:12:10;14.23;;;10.05;;
24439;SDS011;12618;54.386;18.394;2022-08-25T04:14:41;16.40;;;10.05;;
24439;SDS011;12618;54.386;18.394;2022-08-25T04:17:11;16.57;;;11.30;;
24439;SDS011;12618;54.386;18.394;2022-08-25T04:19:43;17.12;;;10.82;;
24439;SDS011;12618;54.386;18.394;2022-08-25T04:22:14;16.65;;;9.95;;
24439;SDS011;12618;54.386;18.394;2022-08-25T04:24:44;14.13;;;9.45;;
24439;SDS011;12618;54.386;18.394;2022-08-25T04:27:15;14.60;;;9.50;;
24439;SDS011;12618;54.386;18.394;2022-08-25T04:29:45;13.08;;;8.88;;
24439;SDS011;12618;54.386;18.394;2022-08-25T04:32:16;18.25;;;9.80;;
24439;SDS011;12618;54.386;18.394;2022-08-25T04:34:46;13.68;;;9.08;;
24439;SDS011;12618;54.386;18.394;2022-08-25T04:37:18;14.63;;;9.23;;
24439;SDS011;12618;54.386;18.394;2022-08-25T04:39:48;11.22;;;8.23;;
24439;SDS011;12618;54.386;18.394;2022-08-25T04:42:21;13.93;;;8.67;;
24439;SDS011;12618;54.386;18.394;2022-08-25T04:44:52;15.90;;;8.45;;
24439;SDS011;12618;54.386;18.394;2022-08-25T04:47:23;15.63;;;9.33;;
24439;SDS011;12618;54.386;18.394;2022-08-25T04:49:54;9.93;;;7.97;;
24439;SDS011;12618;54.386;18.394;2022-08-25T04:52:24;14.98;;;8.68;;
24439;SDS011;12618;54.386;18.394;2022-08-25T04:54:55;13.10;;;8.05;;
24439;SDS011;12618;54.386;18.394;2022-08-25T04:57:25;15.68;;;8.18;;
24439;SDS011;12618;54.386;18.394;2022-08-25T04:59:57;13.93;;;8.03;;
24439;SDS011;12618;54.386;18.394;2022-08-25T05:02:27;12.05;;;7.80;;
24439;SDS011;12618;54.386;18.394;2022-08-25T05:04:57;16.15;;;7.75;;
24439;SDS011;12618;54.386;18.394;2022-08-25T05:07:28;15.53;;;8.13;;
24439;SDS011;12618;54.386;18.394;2022-08-25T05:09:59;17.27;;;7.42;;
24439;SDS011;12618;54.386;18.394;2022-08-25T05:12:29;14.58;;;8.05;;
24439;SDS011;12618;54.386;18.394;2022-08-25T05:15:00;14.73;;;7.28;;
24439;SDS011;12618;54.386;18.394;2022-08-25T05:17:32;12.80;;;7.50;;
24439;SDS011;12618;54.386;18.394;2022-08-25T05:20:03;16.95;;;7.83;;
24439;SDS011;12618;54.386;18.394;2022-08-25T05:22:33;17.07;;;8.83;;
24439;SDS011;12618;54.386;18.394;2022-08-25T05:25:04;13.97;;;7.57;;
24439;SDS011;12618;54.386;18.394;2022-08-25T05:27:36;13.20;;;7.95;;
24439;SDS011;12618;54.386;18.394;2022-08-25T05:30:06;17.55;;;7.92;;
24439;SDS011;12618;54.386;18.394;2022-08-25T05:32:37;15.75;;;7.35;;
24439;SDS011;12618;54.386;18.394;2022-08-25T05:35:08;17.37;;;7.33;;
24439;SDS011;12618;54.386;18.394;2022-08-25T05:37:38;15.25;;;7.37;;
24439;SDS011;12618;54.386;18.394;2022-08-25T05:40:09;20.15;;;7.65;;
24439;SDS011;12618;54.386;18.394;2022-08-25T05:42:39;13.98;;;6.90;;
24439;SDS011;12618;54.386;18.394;2022-08-25T05:45:10;12.25;;;6.87;;
24439;SDS011;12618;54.386;18.394;2022-08-25T05:47:40;11.78;;;6.62;;
24439;SDS011;12618;54.386;18.394;2022-08-25T05:50:11;15.55;;;6.72;;
24439;SDS011;12618;54.386;18.394;2022-08-25T05:52:41;15.93;;;6.65;;
24439;SDS011;12618;54.386;18.394;2022-08-25T05:55:13;14.07;;;6.53;;
24439;SDS011;12618;54.386;18.394;2022-08-25T05:57:44;15.55;;;6.60;;
24439;SDS011;12618;54.386;18.394;2022-08-25T06:00:16;15.72;;;6.75;;
24439;SDS011;12618;54.386;18.394;2022-08-25T06:02:47;16.17;;;6.50;;
24439;SDS011;12618;54.386;18.394;2022-08-25T06:05:20;13.68;;;6.42;;
24439;SDS011;12618;54.386;18.394;2022-08-25T06:07:52;12.93;;;6.20;;
24439;SDS011;12618;54.386;18.394;2022-08-25T06:10:23;16.10;;;6.20;;
24439;SDS011;12618;54.386;18.394;2022-08-25T06:12:54;11.08;;;6.22;;
24439;SDS011;12618;54.386;18.394;2022-08-25T06:15:25;19.37;;;6.37;;
24439;SDS011;12618;54.386;18.394;2022-08-25T06:17:56;14.65;;;5.90;;
24439;SDS011;12618;54.386;18.394;2022-08-25T06:20:29;13.97;;;5.97;;
24439;SDS011;12618;54.386;18.394;2022-08-25T06:23:00;12.60;;;6.65;;
24439;SDS011;12618;54.386;18.394;2022-08-25T06:25:30;12.10;;;5.87;;
24439;SDS011;12618;54.386;18.394;2022-08-25T06:28:03;12.85;;;6.30;;
24439;SDS011;12618;54.386;18.394;2022-08-25T06:30:33;15.50;;;6.35;;
24439;SDS011;12618;54.386;18.394;2022-08-25T06:33:04;18.95;;;6.65;;
24439;SDS011;12618;54.386;18.394;2022-08-25T06:35:34;19.42;;;6.62;;
24439;SDS011;12618;54.386;18.394;2022-08-25T06:38:06;13.60;;;6.12;;
24439;SDS011;12618;54.386;18.394;2022-08-25T06:40:38;14.13;;;6.05;;
24439;SDS011;12618;54.386;18.394;2022-08-25T06:43:09;11.57;;;5.80;;
24439;SDS011;12618;54.386;18.394;2022-08-25T06:45:40;15.95;;;5.72;;
24439;SDS011;12618;54.386;18.394;2022-08-25T06:48:12;13.53;;;5.97;;
24439;SDS011;12618;54.386;18.394;2022-08-25T06:50:42;12.20;;;5.65;;
24439;SDS011;12618;54.386;18.394;2022-08-25T06:53:13;10.82;;;5.28;;
24439;SDS011;12618;54.386;18.394;2022-08-25T06:55:44;12.07;;;5.60;;
24439;SDS011;12618;54.386;18.394;2022-08-25T06:58:14;15.32;;;5.87;;
24439;SDS011;12618;54.386;18.394;2022-08-25T07:00:45;17.40;;;5.95;;
24439;SDS011;12618;54.386;18.394;2022-08-25T07:03:15;11.57;;;5.83;;
24439;SDS011;12618;54.386;18.394;2022-08-25T07:05:49;13.40;;;5.80;;
24439;SDS011;12618;54.386;18.394;2022-08-25T07:08:20;14.03;;;6.22;;
24439;SDS011;12618;54.386;18.394;2022-08-25T07:10:50;14.13;;;5.83;;
24439;SDS011;12618;54.386;18.394;2022-08-25T07:13:21;12.88;;;5.80;;
24439;SDS011;12618;54.386;18.394;2022-08-25T07:15:52;10.23;;;5.75;;
24439;SDS011;12618;54.386;18.394;2022-08-25T07:18:23;11.45;;;5.72;;
24439;SDS011;12618;54.386;18.394;2022-08-25T07:20:54;14.03;;;5.90;;
24439;SDS011;12618;54.386;18.394;2022-08-25T07:23:27;15.45;;;5.67;;
24439;SDS011;12618;54.386;18.394;2022-08-25T07:28:39;12.13;;;5.53;;
24439;SDS011;12618;54.386;18.394;2022-08-25T07:31:10;12.78;;;5.62;;
24439;SDS011;12618;54.386;18.394;2022-08-25T07:33:41;11.18;;;5.33;;
24439;SDS011;12618;54.386;18.394;2022-08-25T07:36:13;16.37;;;5.85;;
24439;SDS011;12618;54.386;18.394;2022-08-25T07:38:44;12.93;;;5.78;;
24439;SDS011;12618;54.386;18.394;2022-08-25T07:41:14;17.05;;;5.35;;
24439;SDS011;12618;54.386;18.394;2022-08-25T07:43:45;15.32;;;5.65;;
24439;SDS011;12618;54.386;18.394;2022-08-25T07:46:16;14.85;;;6.00;;
24439;SDS011;12618;54.386;18.394;2022-08-25T07:48:47;14.13;;;5.83;;
24439;SDS011;12618;54.386;18.394;2022-08-25T07:51:17;13.48;;;5.67;;
24439;SDS011;12618;54.386;18.394;2022-08-25T07:53:48;15.13;;;5.70;;
24439;SDS011;12618;54.386;18.394;2022-08-25T07:56:18;13.65;;;5.30;;
24439;SDS011;12618;54.386;18.394;2022-08-25T07:58:49;13.40;;;5.22;;
24439;SDS011;12618;54.386;18.394;2022-08-25T08:01:21;14.40;;;5.70;;
24439;SDS011;12618;54.386;18.394;2022-08-25T08:03:51;23.60;;;5.83;;
24439;SDS011;12618;54.386;18.394;2022-08-25T08:06:22;18.02;;;5.80;;
24439;SDS011;12618;54.386;18.394;2022-08-25T08:08:53;14.23;;;5.90;;
24439;SDS011;12618;54.386;18.394;2022-08-25T08:11:25;11.12;;;5.30;;
24439;SDS011;12618;54.386;18.394;2022-08-25T08:13:56;15.43;;;5.95;;
24439;SDS011;12618;54.386;18.394;2022-08-25T08:16:27;13.68;;;5.90;;
24439;SDS011;12618;54.386;18.394;2022-08-25T08:18:58;17.07;;;6.05;;
24439;SDS011;12618;54.386;18.394;2022-08-25T08:21:31;14.47;;;6.05;;
24439;SDS011;12618;54.386;18.394;2022-08-25T08:24:02;17.00;;;6.17;;
24439;SDS011;12618;54.386;18.394;2022-08-25T08:26:32;17.80;;;5.95;;
24439;SDS011;12618;54.386;18.394;2022-08-25T08:29:03;12.82;;;5.85;;
24439;SDS011;12618;54.386;18.394;2022-08-25T08:31:33;18.10;;;6.23;;
24439;SDS011;12618;54.386;18.394;2022-08-25T08:34:04;15.50;;;6.12;;
24439;SDS011;12618;54.386;18.394;2022-08-25T08:36:35;15.75;;;6.00;;
24439;SDS011;12618;54.386;18.394;2022-08-25T08:39:06;13.22;;;5.85;;
24439;SDS011;12618;54.386;18.394;2022-08-25T08:52:43;16.48;;;6.47;;
24439;SDS011;12618;54.386;18.394;2022-08-25T08:55:48;16.87;;;6.00;;
24439;SDS011;12618;54.386;18.394;2022-08-25T08:57:52;11.80;;;6.12;;
24439;SDS011;12618;54.386;18.394;2022-08-25T09:00:25;16.70;;;6.83;;
24439;SDS011;12618;54.386;18.394;2022-08-25T09:05:45;14.90;;;6.87;;
24439;SDS011;12618;54.386;18.394;2022-08-25T09:08:06;18.15;;;6.95;;
24439;SDS011;12618;54.386;18.394;2022-08-25T09:10:42;18.02;;;7.70;;
24439;SDS011;12618;54.386;18.394;2022-08-25T09:16:11;15.98;;;8.93;;
24439;SDS011;12618;54.386;18.394;2022-08-25T09:21:40;21.82;;;10.32;;
24439;SDS011;12618;54.386;18.394;2022-08-25T09:26:44;24.52;;;10.20;;
24439;SDS011;12618;54.386;18.394;2022-08-25T09:29:14;21.62;;;11.78;;
24439;SDS011;12618;54.386;18.394;2022-08-25T09:31:46;17.15;;;11.00;;
24439;SDS011;12618;54.386;18.394;2022-08-25T09:34:18;22.67;;;11.48;;
24439;SDS011;12618;54.386;18.394;2022-08-25T09:36:49;19.70;;;12.30;;
24439;SDS011;12618;54.386;18.394;2022-08-25T09:39:21;20.08;;;11.00;;
24439;SDS011;12618;54.386;18.394;2022-08-25T09:41:53;20.90;;;11.12;;
24439;SDS011;12618;54.386;18.394;2022-08-25T09:44:37;20.35;;;11.30;;
24439;SDS011;12618;54.386;18.394;2022-08-25T09:47:06;21.02;;;10.95;;
24439;SDS011;12618;54.386;18.394;2022-08-25T09:49:39;17.90;;;10.88;;
24439;SDS011;12618;54.386;18.394;2022-08-25T09:54:52;20.52;;;11.43;;
24439;SDS011;12618;54.386;18.394;2022-08-25T09:57:31;21.93;;;11.75;;
24439;SDS011;12618;54.386;18.394;2022-08-25T10:02:40;19.82;;;11.33;;
24439;SDS011;12618;54.386;18.394;2022-08-25T10:05:21;18.37;;;12.70;;
24439;SDS011;12618;54.386;18.394;2022-08-25T10:07:57;26.12;;;13.10;;
24439;SDS011;12618;54.386;18.394;2022-08-25T10:10:36;21.42;;;13.10;;
24439;SDS011;12618;54.386;18.394;2022-08-25T10:13:02;19.85;;;12.40;;
24439;SDS011;12618;54.386;18.394;2022-08-25T10:15:36;20.80;;;13.08;;
24439;SDS011;12618;54.386;18.394;2022-08-25T10:21:01;24.98;;;13.68;;
24439;SDS011;12618;54.386;18.394;2022-08-25T10:23:33;26.40;;;15.10;;
24439;SDS011;12618;54.386;18.394;2022-08-25T10:29:00;23.97;;;14.17;;
24439;SDS011;12618;54.386;18.394;2022-08-25T10:31:18;23.92;;;13.83;;
24439;SDS011;12618;54.386;18.394;2022-08-25T10:33:50;26.48;;;15.13;;
24439;SDS011;12618;54.386;18.394;2022-08-25T10:36:33;29.80;;;14.50;;
24439;SDS011;12618;54.386;18.394;2022-08-25T10:38:56;20.77;;;14.78;;
24439;SDS011;12618;54.386;18.394;2022-08-25T10:51:48;23.47;;;13.35;;
24439;SDS011;12618;54.386;18.394;2022-08-25T10:57:20;25.32;;;14.43;;
24439;SDS011;12618;54.386;18.394;2022-08-25T10:59:50;24.82;;;15.40;;
24439;SDS011;12618;54.386;18.394;2022-08-25T11:05:16;32.60;;;15.32;;
24439;SDS011;12618;54.386;18.394;2022-08-25T11:07:45;28.12;;;15.70;;
24439;SDS011;12618;54.386;18.394;2022-08-25T11:10:21;24.15;;;14.38;;
24439;SDS011;12618;54.386;18.394;2022-08-25T11:12:53;27.00;;;15.60;;
24439;SDS011;12618;54.386;18.394;2022-08-25T11:18:01;27.52;;;14.47;;
24439;SDS011;12618;54.386;18.394;2022-08-25T11:23:27;31.02;;;13.53;;
24439;SDS011;12618;54.386;18.394;2022-08-25T11:25:59;27.05;;;14.00;;
24439;SDS011;12618;54.386;18.394;2022-08-25T11:31:06;21.82;;;11.57;;
24439;SDS011;12618;54.386;18.394;2022-08-25T11:33:38;24.18;;;11.18;;
24439;SDS011;12618;54.386;18.394;2022-08-25T11:36:15;29.75;;;12.88;;
24439;SDS011;12618;54.386;18.394;2022-08-25T11:39:34;27.00;;;10.90;;
24439;SDS011;12618;54.386;18.394;2022-08-25T11:41:35;23.05;;;10.32;;
24439;SDS011;12618;54.386;18.394;2022-08-25T11:44:10;21.00;;;9.83;;
24439;SDS011;12618;54.386;18.394;2022-08-25T11:49:44;25.00;;;10.48;;
24439;SDS011;12618;54.386;18.394;2022-08-25T11:57:37;21.27;;;8.85;;
24439;SDS011;12618;54.386;18.394;2022-08-25T12:00:18;21.27;;;9.10;;
24439;SDS011;12618;54.386;18.394;2022-08-25T12:02:44;18.80;;;8.55;;
24439;SDS011;12618;54.386;18.394;2022-08-25T12:05:47;19.07;;;8.90;;
24439;SDS011;12618;54.386;18.394;2022-08-25T12:10:59;23.55;;;8.70;;
24439;SDS011;12618;54.386;18.394;2022-08-25T12:21:45;21.70;;;8.00;;
24439;SDS011;12618;54.386;18.394;2022-08-25T12:24:17;24.85;;;8.58;;
24439;SDS011;12618;54.386;18.394;2022-08-25T12:26:55;18.82;;;8.00;;
24439;SDS011;12618;54.386;18.394;2022-08-25T12:29:46;17.12;;;7.80;;
24439;SDS011;12618;54.386;18.394;2022-08-25T12:37:29;23.60;;;7.97;;
24439;SDS011;12618;54.386;18.394;2022-08-25T12:40:01;16.50;;;7.12;;
24439;SDS011;12618;54.386;18.394;2022-08-25T12:42:37;22.77;;;8.58;;
24439;SDS011;12618;54.386;18.394;2022-08-25T12:47:54;20.02;;;7.67;;
24439;SDS011;12618;54.386;18.394;2022-08-25T12:50:40;21.25;;;8.13;;
24439;SDS011;12618;54.386;18.394;2022-08-25T12:53:13;19.50;;;7.92;;
24439;SDS011;12618;54.386;18.394;2022-08-25T12:55:45;24.50;;;8.88;;
24439;SDS011;12618;54.386;18.394;2022-08-25T12:58:15;21.95;;;8.10;;
24439;SDS011;12618;54.386;18.394;2022-08-25T13:11:36;21.60;;;8.65;;
24439;SDS011;12618;54.386;18.394;2022-08-25T13:16:58;23.83;;;9.43;;
24439;SDS011;12618;54.386;18.394;2022-08-25T13:19:29;23.12;;;9.50;;
24439;SDS011;12618;54.386;18.394;2022-08-25T13:22:00;27.05;;;9.83;;
24439;SDS011;12618;54.386;18.394;2022-08-25T13:24:33;21.68;;;9.45;;
24439;SDS011;12618;54.386;18.394;2022-08-25T13:27:05;26.87;;;9.83;;
24439;SDS011;12618;54.386;18.394;2022-08-25T13:29:48;23.65;;;9.23;;
24439;SDS011;12618;54.386;18.394;2022-08-25T13:32:11;24.40;;;9.10;;
24439;SDS011;12618;54.386;18.394;2022-08-25T13:34:42;36.08;;;10.45;;
24439;SDS011;12618;54.386;18.394;2022-08-25T13:37:16;22.05;;;9.58;;
24439;SDS011;12618;54.386;18.394;2022-08-25T13:42:40;23.67;;;10.10;;
24439;SDS011;12618;54.386;18.394;2022-08-25T13:45:13;24.25;;;9.60;;
24439;SDS011;12618;54.386;18.394;2022-08-25T13:47:44;18.48;;;9.00;;
24439;SDS011;12618;54.386;18.394;2022-08-25T13:50:20;23.10;;;9.55;;
24439;SDS011;12618;54.386;18.394;2022-08-25T13:55:33;38.92;;;10.65;;
24439;SDS011;12618;54.386;18.394;2022-08-25T13:58:05;24.87;;;9.23;;
24439;SDS011;12618;54.386;18.394;2022-08-25T14:00:43;22.10;;;9.23;;
24439;SDS011;12618;54.386;18.394;2022-08-25T14:06:03;24.55;;;9.15;;
24439;SDS011;12618;54.386;18.394;2022-08-25T14:08:35;24.98;;;9.93;;
24439;SDS011;12618;54.386;18.394;2022-08-25T14:11:11;25.05;;;9.63;;
24439;SDS011;12618;54.386;18.394;2022-08-25T14:13:44;23.22;;;10.08;;
24439;SDS011;12618;54.386;18.394;2022-08-25T14:16:19;19.27;;;9.30;;
24439;SDS011;12618;54.386;18.394;2022-08-25T14:18:50;22.95;;;9.23;;
24439;SDS011;12618;54.386;18.394;2022-08-25T14:21:24;20.10;;;9.58;;
24439;SDS011;12618;54.386;18.394;2022-08-25T14:23:54;27.50;;;9.48;;
24439;SDS011;12618;54.386;18.394;2022-08-25T14:26:28;26.70;;;9.80;;
24439;SDS011;12618;54.386;18.394;2022-08-25T14:28:58;23.42;;;10.13;;
24439;SDS011;12618;54.386;18.394;2022-08-25T14:31:30;21.23;;;9.60;;
24439;SDS011;12618;54.386;18.394;2022-08-25T14:34:06;28.42;;;9.93;;
24439;SDS011;12618;54.386;18.394;2022-08-25T14:36:37;23.77;;;10.15;;
24439;SDS011;12618;54.386;18.394;2022-08-25T14:39:09;30.45;;;10.43;;
24439;SDS011;12618;54.386;18.394;2022-08-25T14:41:43;28.25;;;10.65;;
24439;SDS011;12618;54.386;18.394;2022-08-25T14:44:15;22.42;;;9.73;;
24439;SDS011;12618;54.386;18.394;2022-08-25T14:46:53;19.02;;;8.25;;
24439;SDS011;12618;54.386;18.394;2022-08-25T14:49:25;23.27;;;9.50;;
24439;SDS011;12618;54.386;18.394;2022-08-25T14:52:03;16.85;;;9.25;;
24439;SDS011;12618;54.386;18.394;2022-08-25T14:54:34;23.47;;;10.25;;
24439;SDS011;12618;54.386;18.394;2022-08-25T14:57:05;22.02;;;9.65;;
24439;SDS011;12618;54.386;18.394;2022-08-25T14:59:35;21.35;;;9.60;;
24439;SDS011;12618;54.386;18.394;2022-08-25T15:02:06;24.87;;;11.12;;
24439;SDS011;12618;54.386;18.394;2022-08-25T15:04:37;21.35;;;9.93;;
24439;SDS011;12618;54.386;18.394;2022-08-25T15:07:08;18.00;;;9.45;;
24439;SDS011;12618;54.386;18.394;2022-08-25T15:09:42;26.70;;;10.00;;
24439;SDS011;12618;54.386;18.394;2022-08-25T15:12:12;24.67;;;10.30;;
24439;SDS011;12618;54.386;18.394;2022-08-25T15:14:43;21.33;;;10.85;;
24439;SDS011;12618;54.386;18.394;2022-08-25T15:17:14;29.23;;;10.08;;
24439;SDS011;12618;54.386;18.394;2022-08-25T15:19:45;24.70;;;10.13;;
24439;SDS011;12618;54.386;18.394;2022-08-25T15:22:15;26.87;;;11.40;;
24439;SDS011;12618;54.386;18.394;2022-08-25T15:24:46;21.55;;;10.40;;
24439;SDS011;12618;54.386;18.394;2022-08-25T15:27:18;20.90;;;9.85;;
24439;SDS011;12618;54.386;18.394;2022-08-25T15:29:49;21.15;;;10.70;;
24439;SDS011;12618;54.386;18.394;2022-08-25T15:32:19;22.45;;;10.28;;
24439;SDS011;12618;54.386;18.394;2022-08-25T15:34:50;24.30;;;10.00;;
24439;SDS011;12618;54.386;18.394;2022-08-25T15:37:20;25.08;;;12.18;;
24439;SDS011;12618;54.386;18.394;2022-08-25T15:39:51;20.05;;;11.70;;
24439;SDS011;12618;54.386;18.394;2022-08-25T15:42:22;29.87;;;12.00;;
24439;SDS011;12618;54.386;18.394;2022-08-25T15:44:52;24.87;;;12.20;;
24439;SDS011;12618;54.386;18.394;2022-08-25T15:47:23;20.00;;;12.55;;
24439;SDS011;12618;54.386;18.394;2022-08-25T15:49:59;29.50;;;13.00;;
24439;SDS011;12618;54.386;18.394;2022-08-25T15:52:26;27.27;;;12.82;;
24439;SDS011;12618;54.386;18.394;2022-08-25T15:54:57;25.15;;;12.23;;
24439;SDS011;12618;54.386;18.394;2022-08-25T15:57:28;25.97;;;12.28;;
24439;SDS011;12618;54.386;18.394;2022-08-25T15:59:58;27.20;;;13.08;;
24439;SDS011;12618;54.386;18.394;2022-08-25T16:02:28;28.50;;;14.03;;
24439;SDS011;12618;54.386;18.394;2022-08-25T16:05:01;28.52;;;14.20;;
24439;SDS011;12618;54.386;18.394;2022-08-25T16:07:32;25.32;;;13.95;;
24439;SDS011;12618;54.386;18.394;2022-08-25T16:10:03;28.77;;;14.03;;
24439;SDS011;12618;54.386;18.394;2022-08-25T16:12:34;27.42;;;14.53;;
24439;SDS011;12618;54.386;18.394;2022-08-25T16:15:04;25.55;;;13.58;;
24439;SDS011;12618;54.386;18.394;2022-08-25T16:17:35;27.27;;;14.58;;
24439;SDS011;12618;54.386;18.394;2022-08-25T16:20:05;20.72;;;13.25;;
24439;SDS011;12618;54.386;18.394;2022-08-25T16:22:36;24.70;;;14.75;;
24439;SDS011;12618;54.386;18.394;2022-08-25T16:25:07;26.52;;;14.60;;
24439;SDS011;12618;54.386;18.394;2022-08-25T16:27:38;27.85;;;13.85;;
24439;SDS011;12618;54.386;18.394;2022-08-25T16:30:09;25.82;;;14.93;;
24439;SDS011;12618;54.386;18.394;2022-08-25T16:32:41;34.27;;;14.95;;
24439;SDS011;12618;54.386;18.394;2022-08-25T16:35:12;24.65;;;13.72;;